sensor_id;sensor_type;location;lat;lon;timestamp;P1;durP1;ratioP1;P2;durP2;ratioP2
51836;SDS011;38941;53.254;6.600;2023-01-10T00:00:35;10.00;;;1.40;;
51836;SDS011;38941;53.254;6.600;2023-01-10T00:02:36;11.55;;;2.00;;
51836;SDS011;38941;53.254;6.600;2023-01-10T00:04:37;8.43;;;1.17;;
51836;SDS011;38941;53.254;6.600;2023-01-10T00:06:38;7.15;;;2.00;;
51836;SDS011;38941;53.254;6.600;2023-01-10T00:08:40;11.10;;;1.70;;
51836;SDS011;38941;53.254;6.600;2023-01-10T00:10:41;20.85;;;3.95;;
51836;SDS011;38941;53.254;6.600;2023-01-10T00:12:41;18.05;;;2.58;;
51836;SDS011;38941;53.254;6.600;2023-01-10T00:15:01;13.02;;;1.30;;
51836;SDS011;38941;53.254;6.600;2023-01-10T00:17:02;12.90;;;2.30;;
51836;SDS011;38941;53.254;6.600;2023-01-10T00:19:08;11.23;;;1.95;;
51836;SDS011;38941;53.254;6.600;2023-01-10T00:21:09;11.40;;;1.75;;
51836;SDS011;38941;53.254;6.600;2023-01-10T00:23:10;9.93;;;1.42;;
51836;SDS011;38941;53.254;6.600;2023-01-10T00:25:11;9.95;;;1.90;;
51836;SDS011;38941;53.254;6.600;2023-01-10T00:27:14;19.38;;;3.00;;
51836;SDS011;38941;53.254;6.600;2023-01-10T00:29:25;10.73;;;1.95;;
51836;SDS011;38941;53.254;6.600;2023-01-10T00:31:27;13.57;;;1.60;;
51836;SDS011;38941;53.254;6.600;2023-01-10T00:33:28;14.40;;;1.90;;
51836;SDS011;38941;53.254;6.600;2023-01-10T00:35:32;10.23;;;1.38;;
51836;SDS011;38941;53.254;6.600;2023-01-10T00:37:32;12.88;;;1.98;;
51836;SDS011;38941;53.254;6.600;2023-01-10T00:39:33;9.35;;;2.08;;
51836;SDS011;38941;53.254;6.600;2023-01-10T00:41:34;6.07;;;1.52;;
51836;SDS011;38941;53.254;6.600;2023-01-10T00:43:53;11.48;;;1.98;;
51836;SDS011;38941;53.254;6.600;2023-01-10T00:45:58;11.07;;;1.80;;
51836;SDS011;38941;53.254;6.600;2023-01-10T00:48:01;10.90;;;2.05;;
51836;SDS011;38941;53.254;6.600;2023-01-10T00:50:03;13.48;;;2.20;;
51836;SDS011;38941;53.254;6.600;2023-01-10T00:52:08;11.70;;;1.73;;
51836;SDS011;38941;53.254;6.600;2023-01-10T00:54:09;12.10;;;2.03;;
51836;SDS011;38941;53.254;6.600;2023-01-10T00:56:11;15.48;;;1.70;;
51836;SDS011;38941;53.254;6.600;2023-01-10T00:58:15;13.82;;;1.92;;
51836;SDS011;38941;53.254;6.600;2023-01-10T01:00:16;16.67;;;2.47;;
51836;SDS011;38941;53.254;6.600;2023-01-10T01:02:18;14.80;;;1.70;;
51836;SDS011;38941;53.254;6.600;2023-01-10T01:04:19;13.57;;;2.00;;
51836;SDS011;38941;53.254;6.600;2023-01-10T01:06:20;10.30;;;2.08;;
51836;SDS011;38941;53.254;6.600;2023-01-10T01:08:22;15.55;;;2.53;;
51836;SDS011;38941;53.254;6.600;2023-01-10T01:10:23;14.32;;;4.45;;
51836;SDS011;38941;53.254;6.600;2023-01-10T01:12:26;23.17;;;2.63;;
51836;SDS011;38941;53.254;6.600;2023-01-10T01:14:27;10.48;;;1.55;;
51836;SDS011;38941;53.254;6.600;2023-01-10T01:16:29;8.15;;;1.23;;
51836;SDS011;38941;53.254;6.600;2023-01-10T01:18:30;10.93;;;1.33;;
51836;SDS011;38941;53.254;6.600;2023-01-10T01:20:31;12.15;;;2.40;;
51836;SDS011;38941;53.254;6.600;2023-01-10T01:22:33;9.60;;;1.70;;
51836;SDS011;38941;53.254;6.600;2023-01-10T01:24:35;11.32;;;1.90;;
51836;SDS011;38941;53.254;6.600;2023-01-10T01:26:36;16.95;;;2.58;;
51836;SDS011;38941;53.254;6.600;2023-01-10T01:28:38;15.38;;;2.47;;
51836;SDS011;38941;53.254;6.600;2023-01-10T01:30:39;19.98;;;2.35;;
51836;SDS011;38941;53.254;6.600;2023-01-10T01:32:41;10.10;;;1.92;;
51836;SDS011;38941;53.254;6.600;2023-01-10T01:34:42;12.05;;;1.60;;
51836;SDS011;38941;53.254;6.600;2023-01-10T01:36:42;17.05;;;2.35;;
51836;SDS011;38941;53.254;6.600;2023-01-10T01:38:43;11.65;;;1.77;;
51836;SDS011;38941;53.254;6.600;2023-01-10T01:40:44;14.35;;;2.92;;
51836;SDS011;38941;53.254;6.600;2023-01-10T01:42:45;9.32;;;2.50;;
51836;SDS011;38941;53.254;6.600;2023-01-10T01:45:02;12.00;;;2.50;;
51836;SDS011;38941;53.254;6.600;2023-01-10T01:47:16;12.20;;;2.15;;
51836;SDS011;38941;53.254;6.600;2023-01-10T01:49:25;14.25;;;1.67;;
51836;SDS011;38941;53.254;6.600;2023-01-10T01:51:26;17.67;;;1.95;;
51836;SDS011;38941;53.254;6.600;2023-01-10T01:53:33;9.38;;;1.38;;
51836;SDS011;38941;53.254;6.600;2023-01-10T01:55:44;14.13;;;2.42;;
51836;SDS011;38941;53.254;6.600;2023-01-10T01:57:47;11.52;;;3.10;;
51836;SDS011;38941;53.254;6.600;2023-01-10T01:59:52;21.23;;;2.67;;
51836;SDS011;38941;53.254;6.600;2023-01-10T02:01:55;14.18;;;2.60;;
51836;SDS011;38941;53.254;6.600;2023-01-10T02:04:13;11.80;;;2.45;;
51836;SDS011;38941;53.254;6.600;2023-01-10T02:06:19;16.08;;;2.10;;
51836;SDS011;38941;53.254;6.600;2023-01-10T02:08:23;17.00;;;2.78;;
51836;SDS011;38941;53.254;6.600;2023-01-10T02:12:45;9.20;;;1.73;;
51836;SDS011;38941;53.254;6.600;2023-01-10T02:14:48;10.60;;;2.28;;
51836;SDS011;38941;53.254;6.600;2023-01-10T02:16:52;15.27;;;2.50;;
51836;SDS011;38941;53.254;6.600;2023-01-10T02:18:52;9.43;;;1.50;;
51836;SDS011;38941;53.254;6.600;2023-01-10T02:21:00;12.80;;;1.77;;
51836;SDS011;38941;53.254;6.600;2023-01-10T02:37:38;12.52;;;1.95;;
51836;SDS011;38941;53.254;6.600;2023-01-10T02:42:14;10.52;;;1.88;;
51836;SDS011;38941;53.254;6.600;2023-01-10T02:46:51;9.95;;;1.60;;
51836;SDS011;38941;53.254;6.600;2023-01-10T02:48:52;10.85;;;2.38;;
51836;SDS011;38941;53.254;6.600;2023-01-10T02:50:56;10.25;;;1.30;;
51836;SDS011;38941;53.254;6.600;2023-01-10T02:53:14;11.07;;;1.75;;
51836;SDS011;38941;53.254;6.600;2023-01-10T02:55:17;9.15;;;1.40;;
51836;SDS011;38941;53.254;6.600;2023-01-10T02:57:24;11.60;;;2.65;;
51836;SDS011;38941;53.254;6.600;2023-01-10T03:08:41;7.03;;;1.50;;
51836;SDS011;38941;53.254;6.600;2023-01-10T03:11:05;10.40;;;1.65;;
51836;SDS011;38941;53.254;6.600;2023-01-10T03:13:13;10.45;;;1.75;;
51836;SDS011;38941;53.254;6.600;2023-01-10T03:15:19;6.45;;;2.20;;
51836;SDS011;38941;53.254;6.600;2023-01-10T03:17:22;18.63;;;1.90;;
51836;SDS011;38941;53.254;6.600;2023-01-10T03:19:26;22.05;;;2.88;;
51836;SDS011;38941;53.254;6.600;2023-01-10T03:21:33;11.73;;;2.33;;
51836;SDS011;38941;53.254;6.600;2023-01-10T03:23:37;14.38;;;2.72;;
51836;SDS011;38941;53.254;6.600;2023-01-10T03:25:39;12.30;;;1.83;;
51836;SDS011;38941;53.254;6.600;2023-01-10T03:27:53;9.55;;;2.00;;
51836;SDS011;38941;53.254;6.600;2023-01-10T03:30:04;9.80;;;2.22;;
51836;SDS011;38941;53.254;6.600;2023-01-10T03:32:10;11.93;;;2.17;;
51836;SDS011;38941;53.254;6.600;2023-01-10T03:34:14;8.00;;;1.38;;
51836;SDS011;38941;53.254;6.600;2023-01-10T03:43:18;13.02;;;3.10;;
51836;SDS011;38941;53.254;6.600;2023-01-10T03:45:50;12.80;;;1.83;;
51836;SDS011;38941;53.254;6.600;2023-01-10T03:48:00;18.45;;;3.28;;
51836;SDS011;38941;53.254;6.600;2023-01-10T03:52:08;8.68;;;2.28;;
51836;SDS011;38941;53.254;6.600;2023-01-10T03:54:14;9.02;;;1.58;;
51836;SDS011;38941;53.254;6.600;2023-01-10T03:56:16;12.25;;;2.17;;
51836;SDS011;38941;53.254;6.600;2023-01-10T03:58:18;13.85;;;1.58;;
51836;SDS011;38941;53.254;6.600;2023-01-10T04:00:20;17.45;;;2.13;;
51836;SDS011;38941;53.254;6.600;2023-01-10T04:02:26;11.60;;;2.08;;
51836;SDS011;38941;53.254;6.600;2023-01-10T04:04:30;19.30;;;2.55;;
51836;SDS011;38941;53.254;6.600;2023-01-10T04:06:32;11.80;;;1.85;;
51836;SDS011;38941;53.254;6.600;2023-01-10T04:08:33;14.80;;;2.00;;
51836;SDS011;38941;53.254;6.600;2023-01-10T04:10:34;9.02;;;1.77;;
51836;SDS011;38941;53.254;6.600;2023-01-10T04:12:34;10.82;;;2.03;;
51836;SDS011;38941;53.254;6.600;2023-01-10T04:14:35;11.82;;;2.15;;
51836;SDS011;38941;53.254;6.600;2023-01-10T04:16:36;7.47;;;1.55;;
51836;SDS011;38941;53.254;6.600;2023-01-10T04:18:37;11.20;;;1.90;;
51836;SDS011;38941;53.254;6.600;2023-01-10T04:20:38;18.70;;;2.55;;
51836;SDS011;38941;53.254;6.600;2023-01-10T04:22:39;7.38;;;1.40;;
51836;SDS011;38941;53.254;6.600;2023-01-10T04:24:40;16.60;;;2.90;;
51836;SDS011;38941;53.254;6.600;2023-01-10T04:26:43;14.77;;;1.70;;
51836;SDS011;38941;53.254;6.600;2023-01-10T04:28:43;9.23;;;1.67;;
51836;SDS011;38941;53.254;6.600;2023-01-10T04:30:44;14.25;;;2.22;;
51836;SDS011;38941;53.254;6.600;2023-01-10T04:32:45;9.30;;;2.20;;
51836;SDS011;38941;53.254;6.600;2023-01-10T04:34:46;15.88;;;1.80;;
51836;SDS011;38941;53.254;6.600;2023-01-10T04:36:48;14.48;;;2.20;;
51836;SDS011;38941;53.254;6.600;2023-01-10T04:38:49;7.95;;;1.90;;
51836;SDS011;38941;53.254;6.600;2023-01-10T04:40:55;11.73;;;1.70;;
51836;SDS011;38941;53.254;6.600;2023-01-10T04:42:56;17.83;;;2.15;;
51836;SDS011;38941;53.254;6.600;2023-01-10T04:44:57;12.80;;;2.35;;
51836;SDS011;38941;53.254;6.600;2023-01-10T04:46:58;11.05;;;2.25;;
51836;SDS011;38941;53.254;6.600;2023-01-10T04:48:58;9.52;;;2.13;;
51836;SDS011;38941;53.254;6.600;2023-01-10T04:51:00;14.93;;;1.90;;
51836;SDS011;38941;53.254;6.600;2023-01-10T04:53:02;10.07;;;2.47;;
51836;SDS011;38941;53.254;6.600;2023-01-10T04:55:03;9.52;;;3.05;;
51836;SDS011;38941;53.254;6.600;2023-01-10T04:57:03;14.65;;;2.58;;
51836;SDS011;38941;53.254;6.600;2023-01-10T04:59:07;8.75;;;2.33;;
51836;SDS011;38941;53.254;6.600;2023-01-10T05:01:13;11.88;;;2.42;;
51836;SDS011;38941;53.254;6.600;2023-01-10T05:03:19;9.52;;;2.50;;
51836;SDS011;38941;53.254;6.600;2023-01-10T05:05:20;12.82;;;3.13;;
51836;SDS011;38941;53.254;6.600;2023-01-10T05:07:21;16.05;;;2.38;;
51836;SDS011;38941;53.254;6.600;2023-01-10T05:09:22;9.98;;;2.42;;
51836;SDS011;38941;53.254;6.600;2023-01-10T05:11:23;14.40;;;1.85;;
51836;SDS011;38941;53.254;6.600;2023-01-10T05:13:24;12.05;;;1.98;;
51836;SDS011;38941;53.254;6.600;2023-01-10T05:15:25;13.00;;;2.30;;
51836;SDS011;38941;53.254;6.600;2023-01-10T05:17:26;13.45;;;3.92;;
51836;SDS011;38941;53.254;6.600;2023-01-10T05:19:26;9.48;;;2.42;;
51836;SDS011;38941;53.254;6.600;2023-01-10T05:21:28;15.85;;;2.00;;
51836;SDS011;38941;53.254;6.600;2023-01-10T05:23:30;12.25;;;1.83;;
51836;SDS011;38941;53.254;6.600;2023-01-10T05:25:30;14.07;;;2.13;;
51836;SDS011;38941;53.254;6.600;2023-01-10T05:27:31;9.45;;;1.38;;
51836;SDS011;38941;53.254;6.600;2023-01-10T05:29:32;12.98;;;1.88;;
51836;SDS011;38941;53.254;6.600;2023-01-10T05:31:35;10.98;;;2.28;;
51836;SDS011;38941;53.254;6.600;2023-01-10T05:33:36;10.25;;;2.35;;
51836;SDS011;38941;53.254;6.600;2023-01-10T05:35:37;8.77;;;1.33;;
51836;SDS011;38941;53.254;6.600;2023-01-10T05:37:38;15.00;;;2.33;;
51836;SDS011;38941;53.254;6.600;2023-01-10T05:39:40;10.50;;;1.80;;
51836;SDS011;38941;53.254;6.600;2023-01-10T05:41:42;9.50;;;2.63;;
51836;SDS011;38941;53.254;6.600;2023-01-10T05:43:44;14.30;;;3.38;;
51836;SDS011;38941;53.254;6.600;2023-01-10T05:45:45;13.20;;;1.60;;
51836;SDS011;38941;53.254;6.600;2023-01-10T05:47:45;8.60;;;2.25;;
51836;SDS011;38941;53.254;6.600;2023-01-10T05:49:46;9.95;;;2.42;;
51836;SDS011;38941;53.254;6.600;2023-01-10T05:51:48;12.75;;;1.95;;
51836;SDS011;38941;53.254;6.600;2023-01-10T05:53:49;12.30;;;2.13;;
51836;SDS011;38941;53.254;6.600;2023-01-10T05:55:57;8.05;;;1.58;;
51836;SDS011;38941;53.254;6.600;2023-01-10T05:58:00;10.88;;;1.73;;
51836;SDS011;38941;53.254;6.600;2023-01-10T06:00:00;13.38;;;2.22;;
51836;SDS011;38941;53.254;6.600;2023-01-10T06:02:02;15.05;;;2.20;;
51836;SDS011;38941;53.254;6.600;2023-01-10T06:04:03;8.13;;;1.60;;
51836;SDS011;38941;53.254;6.600;2023-01-10T06:06:04;9.13;;;1.63;;
51836;SDS011;38941;53.254;6.600;2023-01-10T06:08:05;10.07;;;1.60;;
51836;SDS011;38941;53.254;6.600;2023-01-10T06:10:05;11.27;;;1.70;;
51836;SDS011;38941;53.254;6.600;2023-01-10T06:12:07;12.18;;;1.50;;
51836;SDS011;38941;53.254;6.600;2023-01-10T06:14:07;7.22;;;1.70;;
51836;SDS011;38941;53.254;6.600;2023-01-10T06:16:09;9.90;;;1.48;;
51836;SDS011;38941;53.254;6.600;2023-01-10T06:18:10;10.32;;;1.75;;
51836;SDS011;38941;53.254;6.600;2023-01-10T06:20:11;11.80;;;1.42;;
51836;SDS011;38941;53.254;6.600;2023-01-10T06:22:12;9.48;;;2.10;;
51836;SDS011;38941;53.254;6.600;2023-01-10T06:24:13;10.20;;;2.47;;
51836;SDS011;38941;53.254;6.600;2023-01-10T06:26:13;6.07;;;1.92;;
51836;SDS011;38941;53.254;6.600;2023-01-10T06:28:15;12.38;;;2.33;;
51836;SDS011;38941;53.254;6.600;2023-01-10T06:30:16;11.00;;;2.72;;
51836;SDS011;38941;53.254;6.600;2023-01-10T06:32:17;6.07;;;1.80;;
51836;SDS011;38941;53.254;6.600;2023-01-10T06:34:18;12.25;;;1.60;;
51836;SDS011;38941;53.254;6.600;2023-01-10T06:36:20;6.10;;;1.35;;
51836;SDS011;38941;53.254;6.600;2023-01-10T06:38:21;7.70;;;1.95;;
51836;SDS011;38941;53.254;6.600;2023-01-10T06:40:21;12.35;;;2.53;;
51836;SDS011;38941;53.254;6.600;2023-01-10T06:42:22;14.48;;;1.73;;
51836;SDS011;38941;53.254;6.600;2023-01-10T06:44:23;6.10;;;1.15;;
51836;SDS011;38941;53.254;6.600;2023-01-10T06:46:24;6.93;;;1.63;;
51836;SDS011;38941;53.254;6.600;2023-01-10T06:48:25;5.82;;;1.63;;
51836;SDS011;38941;53.254;6.600;2023-01-10T06:50:26;10.40;;;1.75;;
51836;SDS011;38941;53.254;6.600;2023-01-10T06:52:27;8.23;;;1.48;;
51836;SDS011;38941;53.254;6.600;2023-01-10T06:54:29;8.40;;;2.20;;
51836;SDS011;38941;53.254;6.600;2023-01-10T06:56:31;8.23;;;1.52;;
51836;SDS011;38941;53.254;6.600;2023-01-10T06:58:31;10.15;;;1.73;;
51836;SDS011;38941;53.254;6.600;2023-01-10T07:00:34;10.52;;;1.65;;
51836;SDS011;38941;53.254;6.600;2023-01-10T07:02:36;11.80;;;1.40;;
51836;SDS011;38941;53.254;6.600;2023-01-10T07:04:37;8.13;;;1.67;;
51836;SDS011;38941;53.254;6.600;2023-01-10T07:06:39;8.43;;;1.60;;
51836;SDS011;38941;53.254;6.600;2023-01-10T07:08:41;11.05;;;1.85;;
51836;SDS011;38941;53.254;6.600;2023-01-10T07:10:45;7.43;;;1.20;;
51836;SDS011;38941;53.254;6.600;2023-01-10T07:12:47;7.38;;;1.10;;
51836;SDS011;38941;53.254;6.600;2023-01-10T07:14:48;8.15;;;1.25;;
51836;SDS011;38941;53.254;6.600;2023-01-10T07:16:49;6.78;;;1.75;;
51836;SDS011;38941;53.254;6.600;2023-01-10T07:18:50;7.18;;;1.77;;
51836;SDS011;38941;53.254;6.600;2023-01-10T07:20:50;6.65;;;1.60;;
51836;SDS011;38941;53.254;6.600;2023-01-10T07:22:52;10.55;;;2.05;;
51836;SDS011;38941;53.254;6.600;2023-01-10T07:24:54;6.75;;;1.83;;
51836;SDS011;38941;53.254;6.600;2023-01-10T07:26:56;8.60;;;2.40;;
51836;SDS011;38941;53.254;6.600;2023-01-10T07:28:58;8.57;;;1.63;;
51836;SDS011;38941;53.254;6.600;2023-01-10T07:31:00;7.45;;;1.23;;
51836;SDS011;38941;53.254;6.600;2023-01-10T07:33:01;15.52;;;3.03;;
51836;SDS011;38941;53.254;6.600;2023-01-10T07:35:03;14.63;;;2.65;;
51836;SDS011;38941;53.254;6.600;2023-01-10T07:37:05;11.40;;;2.45;;
51836;SDS011;38941;53.254;6.600;2023-01-10T07:39:05;14.15;;;3.38;;
51836;SDS011;38941;53.254;6.600;2023-01-10T07:41:07;9.18;;;2.05;;
51836;SDS011;38941;53.254;6.600;2023-01-10T07:43:09;13.85;;;2.55;;
51836;SDS011;38941;53.254;6.600;2023-01-10T07:45:11;23.42;;;2.83;;
51836;SDS011;38941;53.254;6.600;2023-01-10T07:47:12;15.77;;;2.58;;
51836;SDS011;38941;53.254;6.600;2023-01-10T07:49:12;11.10;;;2.15;;
51836;SDS011;38941;53.254;6.600;2023-01-10T07:51:15;18.08;;;2.20;;
51836;SDS011;38941;53.254;6.600;2023-01-10T07:53:16;12.23;;;3.15;;
51836;SDS011;38941;53.254;6.600;2023-01-10T07:55:18;12.65;;;2.33;;
51836;SDS011;38941;53.254;6.600;2023-01-10T07:57:20;16.58;;;3.05;;
51836;SDS011;38941;53.254;6.600;2023-01-10T07:59:23;19.85;;;2.22;;
51836;SDS011;38941;53.254;6.600;2023-01-10T08:01:24;11.90;;;2.38;;
51836;SDS011;38941;53.254;6.600;2023-01-10T08:03:31;14.18;;;3.47;;
51836;SDS011;38941;53.254;6.600;2023-01-10T08:05:33;19.50;;;2.42;;
51836;SDS011;38941;53.254;6.600;2023-01-10T08:07:34;17.92;;;2.47;;
51836;SDS011;38941;53.254;6.600;2023-01-10T08:09:36;14.52;;;2.58;;
51836;SDS011;38941;53.254;6.600;2023-01-10T08:11:42;15.90;;;2.67;;
51836;SDS011;38941;53.254;6.600;2023-01-10T08:13:44;13.55;;;2.47;;
51836;SDS011;38941;53.254;6.600;2023-01-10T08:15:46;15.25;;;2.78;;
51836;SDS011;38941;53.254;6.600;2023-01-10T08:17:49;28.45;;;5.45;;
51836;SDS011;38941;53.254;6.600;2023-01-10T08:19:52;21.88;;;3.88;;
51836;SDS011;38941;53.254;6.600;2023-01-10T08:21:53;17.33;;;4.05;;
51836;SDS011;38941;53.254;6.600;2023-01-10T08:23:54;17.10;;;3.22;;
51836;SDS011;38941;53.254;6.600;2023-01-10T08:25:56;13.15;;;3.50;;
51836;SDS011;38941;53.254;6.600;2023-01-10T08:27:59;16.20;;;2.70;;
51836;SDS011;38941;53.254;6.600;2023-01-10T08:30:00;12.50;;;2.47;;
51836;SDS011;38941;53.254;6.600;2023-01-10T08:32:01;15.68;;;3.38;;
51836;SDS011;38941;53.254;6.600;2023-01-10T08:34:03;14.57;;;3.25;;
51836;SDS011;38941;53.254;6.600;2023-01-10T08:36:13;11.15;;;2.30;;
51836;SDS011;38941;53.254;6.600;2023-01-10T08:38:18;15.18;;;3.38;;
51836;SDS011;38941;53.254;6.600;2023-01-10T08:40:18;15.63;;;2.30;;
51836;SDS011;38941;53.254;6.600;2023-01-10T08:42:20;13.80;;;3.13;;
51836;SDS011;38941;53.254;6.600;2023-01-10T08:44:21;19.05;;;2.63;;
51836;SDS011;38941;53.254;6.600;2023-01-10T08:46:22;19.88;;;2.83;;
51836;SDS011;38941;53.254;6.600;2023-01-10T08:48:23;20.50;;;2.85;;
51836;SDS011;38941;53.254;6.600;2023-01-10T08:50:23;14.70;;;2.75;;
51836;SDS011;38941;53.254;6.600;2023-01-10T08:52:25;18.83;;;4.30;;
51836;SDS011;38941;53.254;6.600;2023-01-10T08:54:25;18.97;;;2.97;;
51836;SDS011;38941;53.254;6.600;2023-01-10T08:56:26;21.35;;;3.03;;
51836;SDS011;38941;53.254;6.600;2023-01-10T08:58:27;16.98;;;2.90;;
51836;SDS011;38941;53.254;6.600;2023-01-10T09:00:28;18.60;;;3.05;;
51836;SDS011;38941;53.254;6.600;2023-01-10T09:02:30;17.55;;;2.42;;
51836;SDS011;38941;53.254;6.600;2023-01-10T09:04:30;16.85;;;2.33;;
51836;SDS011;38941;53.254;6.600;2023-01-10T09:06:31;16.08;;;2.72;;
51836;SDS011;38941;53.254;6.600;2023-01-10T09:08:32;17.33;;;3.47;;
51836;SDS011;38941;53.254;6.600;2023-01-10T09:10:34;44.10;;;3.00;;
51836;SDS011;38941;53.254;6.600;2023-01-10T09:12:36;23.40;;;3.35;;
51836;SDS011;38941;53.254;6.600;2023-01-10T09:14:55;19.83;;;2.60;;
51836;SDS011;38941;53.254;6.600;2023-01-10T09:16:57;17.70;;;3.38;;
51836;SDS011;38941;53.254;6.600;2023-01-10T09:18:59;20.23;;;2.65;;
51836;SDS011;38941;53.254;6.600;2023-01-10T09:21:00;15.45;;;2.40;;
51836;SDS011;38941;53.254;6.600;2023-01-10T09:23:09;19.48;;;2.63;;
51836;SDS011;38941;53.254;6.600;2023-01-10T09:25:13;18.63;;;2.63;;
51836;SDS011;38941;53.254;6.600;2023-01-10T09:27:15;18.50;;;3.25;;
51836;SDS011;38941;53.254;6.600;2023-01-10T09:29:18;14.20;;;2.47;;
51836;SDS011;38941;53.254;6.600;2023-01-10T09:31:19;18.40;;;3.20;;
51836;SDS011;38941;53.254;6.600;2023-01-10T09:33:19;23.17;;;3.20;;
51836;SDS011;38941;53.254;6.600;2023-01-10T09:35:21;15.50;;;3.30;;
51836;SDS011;38941;53.254;6.600;2023-01-10T09:37:24;18.92;;;2.83;;
51836;SDS011;38941;53.254;6.600;2023-01-10T09:39:25;23.08;;;4.60;;
51836;SDS011;38941;53.254;6.600;2023-01-10T09:41:37;17.42;;;3.42;;
51836;SDS011;38941;53.254;6.600;2023-01-10T09:43:52;17.75;;;3.15;;
51836;SDS011;38941;53.254;6.600;2023-01-10T09:46:07;17.95;;;3.78;;
51836;SDS011;38941;53.254;6.600;2023-01-10T09:51:14;15.75;;;2.92;;
51836;SDS011;38941;53.254;6.600;2023-01-10T09:53:22;15.70;;;4.32;;
51836;SDS011;38941;53.254;6.600;2023-01-10T09:55:28;13.15;;;2.75;;
51836;SDS011;38941;53.254;6.600;2023-01-10T09:57:32;12.73;;;2.42;;
51836;SDS011;38941;53.254;6.600;2023-01-10T09:59:38;11.88;;;3.25;;
51836;SDS011;38941;53.254;6.600;2023-01-10T10:01:40;10.10;;;2.13;;
51836;SDS011;38941;53.254;6.600;2023-01-10T10:06:16;16.40;;;2.55;;
51836;SDS011;38941;53.254;6.600;2023-01-10T10:08:19;17.48;;;2.35;;
51836;SDS011;38941;53.254;6.600;2023-01-10T10:10:24;20.45;;;3.35;;
51836;SDS011;38941;53.254;6.600;2023-01-10T10:12:54;21.67;;;3.50;;
51836;SDS011;38941;53.254;6.600;2023-01-10T10:17:39;17.63;;;2.72;;
51836;SDS011;38941;53.254;6.600;2023-01-10T10:21:57;20.17;;;3.22;;
51836;SDS011;38941;53.254;6.600;2023-01-10T10:30:53;15.70;;;2.53;;
51836;SDS011;38941;53.254;6.600;2023-01-10T10:33:08;9.40;;;2.30;;
51836;SDS011;38941;53.254;6.600;2023-01-10T10:35:33;26.38;;;2.50;;
51836;SDS011;38941;53.254;6.600;2023-01-10T10:37:39;14.32;;;2.33;;
51836;SDS011;38941;53.254;6.600;2023-01-10T10:39:49;17.15;;;2.53;;
51836;SDS011;38941;53.254;6.600;2023-01-10T10:41:55;21.27;;;2.75;;
51836;SDS011;38941;53.254;6.600;2023-01-10T10:43:57;16.58;;;2.30;;
51836;SDS011;38941;53.254;6.600;2023-01-10T10:52:21;16.98;;;2.78;;
51836;SDS011;38941;53.254;6.600;2023-01-10T10:54:25;17.30;;;2.40;;
51836;SDS011;38941;53.254;6.600;2023-01-10T10:56:27;13.10;;;3.08;;
51836;SDS011;38941;53.254;6.600;2023-01-10T10:58:30;17.23;;;2.92;;
51836;SDS011;38941;53.254;6.600;2023-01-10T11:00:33;14.05;;;2.95;;
51836;SDS011;38941;53.254;6.600;2023-01-10T11:02:42;13.68;;;2.55;;
51836;SDS011;38941;53.254;6.600;2023-01-10T11:04:48;15.73;;;3.65;;
51836;SDS011;38941;53.254;6.600;2023-01-10T11:06:52;16.98;;;3.28;;
51836;SDS011;38941;53.254;6.600;2023-01-10T11:08:55;11.88;;;2.30;;
51836;SDS011;38941;53.254;6.600;2023-01-10T11:10:59;9.05;;;2.85;;
51836;SDS011;38941;53.254;6.600;2023-01-10T11:15:36;22.92;;;4.38;;
51836;SDS011;38941;53.254;6.600;2023-01-10T11:17:39;16.20;;;2.53;;
51836;SDS011;38941;53.254;6.600;2023-01-10T11:19:41;25.02;;;3.85;;
51836;SDS011;38941;53.254;6.600;2023-01-10T11:22:02;13.70;;;2.90;;
51836;SDS011;38941;53.254;6.600;2023-01-10T11:24:12;18.02;;;3.55;;
51836;SDS011;38941;53.254;6.600;2023-01-10T11:26:37;18.10;;;3.30;;
51836;SDS011;38941;53.254;6.600;2023-01-10T11:28:39;13.10;;;3.22;;
51836;SDS011;38941;53.254;6.600;2023-01-10T11:30:41;18.55;;;3.55;;
51836;SDS011;38941;53.254;6.600;2023-01-10T11:35:19;12.15;;;4.28;;
51836;SDS011;38941;53.254;6.600;2023-01-10T11:37:28;15.77;;;3.30;;
51836;SDS011;38941;53.254;6.600;2023-01-10T11:39:31;21.02;;;4.35;;
51836;SDS011;38941;53.254;6.600;2023-01-10T11:41:32;15.25;;;3.28;;
51836;SDS011;38941;53.254;6.600;2023-01-10T11:43:39;21.67;;;4.95;;
51836;SDS011;38941;53.254;6.600;2023-01-10T11:45:40;23.15;;;4.10;;
51836;SDS011;38941;53.254;6.600;2023-01-10T11:47:42;18.63;;;4.50;;
51836;SDS011;38941;53.254;6.600;2023-01-10T11:49:54;16.50;;;4.10;;
51836;SDS011;38941;53.254;6.600;2023-01-10T11:51:57;19.02;;;4.10;;
51836;SDS011;38941;53.254;6.600;2023-01-10T11:54:02;20.15;;;4.57;;
51836;SDS011;38941;53.254;6.600;2023-01-10T11:56:11;19.45;;;4.85;;
51836;SDS011;38941;53.254;6.600;2023-01-10T11:58:21;12.35;;;3.65;;
51836;SDS011;38941;53.254;6.600;2023-01-10T12:00:22;19.25;;;4.82;;
51836;SDS011;38941;53.254;6.600;2023-01-10T12:02:32;24.98;;;5.28;;
51836;SDS011;38941;53.254;6.600;2023-01-10T12:04:39;23.02;;;4.55;;
51836;SDS011;38941;53.254;6.600;2023-01-10T12:08:51;21.00;;;5.32;;
51836;SDS011;38941;53.254;6.600;2023-01-10T12:11:01;22.73;;;4.88;;
51836;SDS011;38941;53.254;6.600;2023-01-10T12:13:14;15.68;;;3.85;;
51836;SDS011;38941;53.254;6.600;2023-01-10T12:15:23;23.60;;;4.10;;
51836;SDS011;38941;53.254;6.600;2023-01-10T12:17:34;23.70;;;5.00;;
51836;SDS011;38941;53.254;6.600;2023-01-10T12:19:38;22.13;;;5.57;;
51836;SDS011;38941;53.254;6.600;2023-01-10T12:21:41;19.77;;;4.72;;
51836;SDS011;38941;53.254;6.600;2023-01-10T12:23:43;16.40;;;4.38;;
51836;SDS011;38941;53.254;6.600;2023-01-10T12:25:47;18.83;;;3.70;;
51836;SDS011;38941;53.254;6.600;2023-01-10T12:27:51;18.90;;;4.15;;
51836;SDS011;38941;53.254;6.600;2023-01-10T12:32:05;17.55;;;4.20;;
51836;SDS011;38941;53.254;6.600;2023-01-10T12:34:17;22.98;;;4.32;;
51836;SDS011;38941;53.254;6.600;2023-01-10T12:36:29;24.13;;;4.40;;
51836;SDS011;38941;53.254;6.600;2023-01-10T12:41:14;25.98;;;4.80;;
51836;SDS011;38941;53.254;6.600;2023-01-10T12:43:41;26.52;;;4.45;;
51836;SDS011;38941;53.254;6.600;2023-01-10T12:46:08;18.88;;;3.67;;
51836;SDS011;38941;53.254;6.600;2023-01-10T12:48:24;17.15;;;3.85;;
51836;SDS011;38941;53.254;6.600;2023-01-10T12:50:34;29.05;;;5.97;;
51836;SDS011;38941;53.254;6.600;2023-01-10T12:52:43;13.27;;;4.82;;
51836;SDS011;38941;53.254;6.600;2023-01-10T12:54:56;15.45;;;5.20;;
51836;SDS011;38941;53.254;6.600;2023-01-10T12:56:57;27.83;;;4.30;;
51836;SDS011;38941;53.254;6.600;2023-01-10T12:59:26;22.27;;;4.40;;
51836;SDS011;38941;53.254;6.600;2023-01-10T13:01:37;15.57;;;4.40;;
51836;SDS011;38941;53.254;6.600;2023-01-10T13:03:41;20.08;;;5.07;;
51836;SDS011;38941;53.254;6.600;2023-01-10T13:05:44;20.58;;;5.68;;
51836;SDS011;38941;53.254;6.600;2023-01-10T13:07:51;12.77;;;3.50;;
51836;SDS011;38941;53.254;6.600;2023-01-10T13:10:05;20.10;;;4.60;;
51836;SDS011;38941;53.254;6.600;2023-01-10T13:12:17;21.38;;;4.82;;
51836;SDS011;38941;53.254;6.600;2023-01-10T13:14:27;18.83;;;3.90;;
51836;SDS011;38941;53.254;6.600;2023-01-10T13:18:46;21.75;;;4.28;;
51836;SDS011;38941;53.254;6.600;2023-01-10T13:21:05;24.25;;;4.50;;
51836;SDS011;38941;53.254;6.600;2023-01-10T13:23:13;19.50;;;3.53;;
51836;SDS011;38941;53.254;6.600;2023-01-10T13:25:29;15.93;;;3.47;;
51836;SDS011;38941;53.254;6.600;2023-01-10T13:27:36;13.32;;;3.72;;
51836;SDS011;38941;53.254;6.600;2023-01-10T13:29:39;20.08;;;3.97;;
51836;SDS011;38941;53.254;6.600;2023-01-10T13:31:41;24.30;;;4.45;;
51836;SDS011;38941;53.254;6.600;2023-01-10T13:35:54;27.85;;;4.38;;
51836;SDS011;38941;53.254;6.600;2023-01-10T13:37:59;19.65;;;4.70;;
51836;SDS011;38941;53.254;6.600;2023-01-10T13:40:00;19.90;;;3.85;;